createdAt,value
2018-06-08T00:00:56.472Z,0.00
2018-06-08T00:01:56.452Z,0.00
2018-06-08T00:02:56.453Z,0.00
2018-06-08T00:03:56.458Z,0.00
2018-06-08T00:04:56.459Z,0.00
2018-06-08T00:05:56.464Z,0.00
2018-06-08T00:06:56.469Z,0.00
2018-06-08T00:07:56.469Z,0.00
2018-06-08T00:08:56.487Z,0.00
2018-06-08T00:09:56.478Z,0.00
2018-06-08T00:10:56.487Z,0.00
2018-06-08T00:11:56.487Z,0.00
2018-06-08T00:12:56.489Z,0.00
2018-06-08T00:13:56.491Z,0.00
2018-06-08T00:14:56.496Z,0.00
2018-06-08T00:15:56.517Z,0.00
2018-06-08T00:16:56.528Z,0.00
2018-06-08T00:17:56.503Z,0.00
2018-06-08T00:18:56.514Z,0.00
2018-06-08T00:19:56.514Z,0.00
2018-06-08T00:20:56.533Z,0.00
2018-06-08T00:21:56.518Z,0.00
2018-06-08T00:22:56.521Z,0.00
2018-06-08T00:23:56.524Z,0.00
2018-06-08T00:24:56.557Z,0.00
2018-06-08T00:25:56.537Z,0.00
2018-06-08T00:26:56.541Z,0.00
2018-06-08T00:27:56.551Z,0.00
2018-06-08T00:28:56.543Z,0.00
2018-06-08T00:29:56.543Z,0.00
2018-06-08T00:30:56.551Z,0.00
2018-06-08T00:31:56.562Z,0.00
2018-06-08T00:32:56.558Z,0.00
2018-06-08T00:33:56.560Z,0.00
2018-06-08T00:34:56.561Z,0.00
2018-06-08T00:35:56.567Z,0.00
2018-06-08T00:36:56.592Z,0.00
2018-06-08T00:37:56.570Z,0.00
2018-06-08T00:38:56.579Z,0.00
2018-06-08T00:39:56.579Z,0.00
2018-06-08T00:40:56.594Z,0.00
2018-06-08T00:41:56.588Z,0.00
2018-06-08T00:42:56.589Z,0.00
2018-06-08T00:43:56.592Z,0.00
2018-06-08T00:44:56.594Z,0.00
2018-06-08T00:45:56.635Z,0.00
2018-06-08T00:46:56.600Z,0.00
2018-06-08T00:47:56.608Z,0.00
2018-06-08T00:48:56.607Z,0.00
2018-06-08T00:49:56.609Z,0.00
2018-06-08T00:50:56.614Z,0.00
2018-06-08T00:51:56.644Z,0.00
2018-06-08T00:52:56.625Z,0.00
2018-06-08T00:53:56.646Z,0.00
2018-06-08T00:54:56.650Z,0.00
2018-06-08T00:55:56.637Z,0.00
2018-06-08T00:56:56.633Z,0.00
2018-06-08T00:57:56.661Z,0.00
2018-06-08T00:58:56.639Z,0.00
2018-06-08T00:59:56.644Z,0.00
2018-06-08T01:00:56.652Z,0.00
2018-06-08T01:01:56.647Z,0.00
2018-06-08T01:02:56.664Z,0.00
2018-06-08T01:03:56.655Z,0.00
2018-06-08T01:04:56.674Z,0.00
2018-06-08T01:05:56.661Z,0.00
2018-06-08T01:06:56.664Z,0.00
2018-06-08T01:07:56.668Z,0.00
2018-06-08T01:08:56.687Z,0.00
2018-06-08T01:09:56.679Z,0.00
2018-06-08T01:10:56.677Z,0.00
2018-06-08T01:11:56.699Z,0.00
2018-06-08T01:12:56.689Z,0.00
2018-06-08T01:13:56.686Z,0.00
2018-06-08T01:14:56.689Z,0.00
2018-06-08T01:15:56.691Z,0.00
2018-06-08T01:16:56.693Z,0.00
2018-06-08T01:17:56.698Z,0.00
2018-06-08T01:18:56.699Z,0.00
2018-06-08T01:19:56.708Z,0.00
2018-06-08T01:20:56.728Z,0.00
2018-06-08T01:21:56.714Z,0.00
2018-06-08T01:22:56.723Z,0.00
2018-06-08T01:23:56.718Z,0.00
2018-06-08T01:24:56.720Z,0.00
2018-06-08T01:25:56.762Z,0.00
2018-06-08T01:26:56.726Z,0.00
2018-06-08T01:27:56.823Z,0.00
2018-06-08T01:28:56.731Z,0.00
2018-06-08T01:29:56.738Z,0.00
2018-06-08T01:30:56.740Z,0.00
2018-06-08T01:31:56.742Z,0.00
2018-06-08T01:32:56.769Z,0.00
2018-06-08T01:33:56.749Z,0.00
2018-06-08T01:34:56.748Z,0.00
2018-06-08T01:35:56.783Z,0.00
2018-06-08T01:36:56.758Z,0.00
2018-06-08T01:37:56.761Z,0.00
2018-06-08T01:38:56.760Z,0.00
2018-06-08T01:39:56.762Z,0.00
2018-06-08T01:40:56.768Z,0.00
2018-06-08T01:41:56.772Z,0.00
2018-06-08T01:42:56.771Z,0.00
2018-06-08T01:43:56.773Z,0.00
2018-06-08T01:44:56.779Z,0.00
2018-06-08T01:45:56.781Z,0.00
2018-06-08T01:46:56.805Z,0.00
2018-06-08T01:47:56.803Z,0.00
2018-06-08T01:48:56.805Z,0.00
2018-06-08T01:49:56.800Z,0.00
2018-06-08T01:50:56.794Z,0.00
2018-06-08T01:51:56.804Z,0.00
2018-06-08T01:52:56.804Z,0.00
2018-06-08T01:53:56.804Z,0.00
2018-06-08T01:54:56.831Z,0.00
2018-06-08T01:55:56.814Z,0.00
2018-06-08T01:56:56.814Z,0.00
2018-06-08T01:57:56.815Z,0.00
2018-06-08T01:58:56.816Z,0.00
2018-06-08T01:59:56.828Z,0.00
2018-06-08T02:00:56.869Z,0.00
2018-06-08T02:01:56.839Z,0.00
2018-06-08T02:02:56.831Z,0.00
2018-06-08T02:03:56.859Z,0.00
2018-06-08T02:04:56.838Z,0.00
2018-06-08T02:05:56.858Z,0.00
2018-06-08T02:06:56.857Z,0.00
2018-06-08T02:07:56.844Z,0.00
2018-06-08T02:08:56.847Z,0.00
2018-06-08T02:09:56.874Z,0.00
2018-06-08T02:10:56.861Z,0.00
2018-06-08T02:11:56.885Z,0.00
2018-06-08T02:12:56.885Z,0.00
2018-06-08T02:13:56.868Z,0.00
2018-06-08T02:14:56.866Z,0.00
2018-06-08T02:15:56.869Z,0.00
2018-06-08T02:16:56.885Z,0.00
2018-06-08T02:17:56.894Z,0.00
2018-06-08T02:18:56.877Z,0.00
2018-06-08T02:19:56.898Z,0.00
2018-06-08T02:20:56.881Z,0.00
2018-06-08T02:21:56.885Z,0.00
2018-06-08T02:22:56.888Z,0.00
2018-06-08T02:23:56.910Z,0.00
2018-06-08T02:24:56.893Z,0.00
2018-06-08T02:25:56.898Z,0.00
2018-06-08T02:26:56.898Z,0.00
2018-06-08T02:27:56.903Z,0.00
2018-06-08T02:28:56.911Z,0.00
2018-06-08T02:29:56.908Z,0.00
2018-06-08T02:30:56.916Z,0.00
2018-06-08T02:31:56.918Z,0.00
2018-06-08T02:32:56.916Z,0.00
2018-06-08T02:33:56.919Z,0.00
2018-06-08T02:34:56.946Z,0.00
2018-06-08T02:35:56.948Z,0.00
2018-06-08T02:36:56.940Z,0.00
2018-06-08T02:37:56.931Z,0.00
2018-06-08T02:38:56.935Z,0.00
2018-06-08T02:39:56.937Z,4.00
2018-06-08T02:40:56.951Z,0.00
2018-06-08T02:41:56.948Z,0.00
2018-06-08T02:42:56.946Z,0.00
2018-06-08T02:43:56.949Z,4.00
2018-06-08T02:44:56.951Z,4.00
2018-06-08T02:45:56.976Z,0.00
2018-06-08T02:46:56.961Z,0.00
2018-06-08T02:47:56.960Z,0.00
2018-06-08T02:48:56.989Z,4.00
2018-06-08T02:49:56.962Z,4.00
2018-06-08T02:50:56.975Z,0.00
2018-06-08T02:51:56.980Z,4.00
2018-06-08T02:52:56.980Z,0.00
2018-06-08T02:53:57.001Z,4.00
2018-06-08T02:54:56.978Z,4.00
2018-06-08T02:55:57.035Z,4.00
2018-06-08T02:56:57.008Z,4.00
2018-06-08T02:57:57.046Z,8.00
2018-06-08T02:58:56.994Z,4.00
2018-06-08T02:59:57.012Z,4.00
2018-06-08T03:00:57.018Z,8.00
2018-06-08T03:01:56.997Z,8.00
2018-06-08T03:02:57.040Z,8.00
2018-06-08T03:03:57.008Z,8.00
2018-06-08T03:04:57.033Z,12.00
2018-06-08T03:05:57.015Z,12.00
2018-06-08T03:06:57.013Z,12.00
2018-06-08T03:07:57.018Z,12.00
2018-06-08T03:08:57.020Z,16.00
2018-06-08T03:09:57.046Z,16.00
2018-06-08T03:10:57.022Z,16.00
2018-06-08T03:11:57.103Z,20.00
2018-06-08T03:12:57.049Z,20.00
2018-06-08T03:13:57.031Z,24.00
2018-06-08T03:14:57.036Z,24.00
2018-06-08T03:15:57.037Z,24.00
2018-06-08T03:16:57.039Z,24.00
2018-06-08T03:17:57.063Z,28.00
2018-06-08T03:18:57.046Z,28.00
2018-06-08T03:19:57.047Z,32.00
2018-06-08T03:20:57.071Z,36.00
2018-06-08T03:21:57.056Z,40.00
2018-06-08T03:22:57.068Z,40.00
2018-06-08T03:23:57.061Z,40.00
2018-06-08T03:24:57.061Z,44.00
2018-06-08T03:25:57.064Z,48.00
2018-06-08T03:26:57.098Z,52.00
2018-06-08T03:27:57.069Z,56.00
2018-06-08T03:28:57.075Z,60.00
2018-06-08T03:29:57.119Z,64.00
2018-06-08T03:30:57.080Z,72.00
2018-06-08T03:31:57.082Z,76.00
2018-06-08T03:32:57.101Z,76.00
2018-06-08T03:33:57.114Z,80.00
2018-06-08T03:34:57.087Z,84.00
2018-06-08T03:35:57.155Z,84.00
2018-06-08T03:36:57.100Z,88.00
2018-06-08T03:37:57.097Z,92.00
2018-06-08T03:38:57.100Z,96.00
2018-06-08T03:39:57.120Z,104.00
2018-06-08T03:40:57.137Z,108.00
2018-06-08T03:41:57.109Z,112.00
2018-06-08T03:42:57.142Z,116.00
2018-06-08T03:43:57.115Z,120.00
2018-06-08T03:44:57.115Z,128.00
2018-06-08T03:45:57.126Z,132.00
2018-06-08T03:46:57.121Z,136.00
2018-06-08T03:47:57.135Z,136.00
2018-06-08T03:48:57.167Z,140.00
2018-06-08T03:49:57.130Z,140.00
2018-06-08T03:50:57.137Z,144.00
2018-06-08T03:51:57.139Z,148.00
2018-06-08T03:52:57.149Z,156.00
2018-06-08T03:53:57.143Z,164.00
2018-06-08T03:54:57.144Z,168.00
2018-06-08T03:55:57.197Z,172.00
2018-06-08T03:56:57.158Z,180.00
2018-06-08T03:57:57.152Z,180.00
2018-06-08T03:58:57.166Z,188.00
2018-06-08T03:59:57.165Z,192.00
2018-06-08T04:00:57.163Z,196.00
2018-06-08T04:01:57.162Z,200.00
2018-06-08T04:02:57.167Z,204.00
2018-06-08T04:03:57.168Z,208.00
2018-06-08T04:04:57.173Z,212.00
2018-06-08T04:05:57.199Z,220.00
2018-06-08T04:06:57.185Z,228.00
2018-06-08T04:07:57.233Z,236.00
2018-06-08T04:08:57.214Z,244.00
2018-06-08T04:09:57.188Z,256.00
2018-06-08T04:10:57.192Z,264.00
2018-06-08T04:11:57.194Z,272.00
2018-06-08T04:12:57.225Z,284.00
2018-06-08T04:13:57.220Z,292.00
2018-06-08T04:14:57.200Z,300.00
2018-06-08T04:15:57.206Z,304.00
2018-06-08T04:16:57.210Z,304.00
2018-06-08T04:17:57.210Z,304.00
2018-06-08T04:18:57.212Z,300.00
2018-06-08T04:19:57.249Z,296.00
2018-06-08T04:20:57.223Z,288.00
2018-06-08T04:21:57.258Z,284.00
2018-06-08T04:22:57.225Z,272.00
2018-06-08T04:23:57.233Z,268.00
2018-06-08T04:24:57.230Z,260.00
2018-06-08T04:25:57.237Z,252.00
2018-06-08T04:26:57.244Z,248.00
2018-06-08T04:27:57.266Z,248.00
2018-06-08T04:28:57.246Z,244.00
2018-06-08T04:29:57.283Z,244.00
2018-06-08T04:30:57.256Z,252.00
2018-06-08T04:31:57.251Z,252.00
2018-06-08T04:32:57.262Z,256.00
2018-06-08T04:33:57.280Z,264.00
2018-06-08T04:34:57.261Z,272.00
2018-06-08T04:35:57.300Z,276.00
2018-06-08T04:36:57.266Z,280.00
2018-06-08T04:37:57.271Z,288.00
2018-06-08T04:38:57.299Z,296.00
2018-06-08T04:39:57.285Z,300.00
2018-06-08T04:40:57.309Z,300.00
2018-06-08T04:41:57.318Z,304.00
2018-06-08T04:42:57.307Z,304.00
2018-06-08T04:43:57.313Z,304.00
2018-06-08T04:44:57.320Z,304.00
2018-06-08T04:45:57.297Z,304.00
2018-06-08T04:46:57.300Z,300.00
2018-06-08T04:47:57.331Z,300.00
2018-06-08T04:48:57.312Z,304.00
2018-06-08T04:49:57.310Z,304.00
2018-06-08T04:50:57.317Z,308.00
2018-06-08T04:51:57.342Z,312.00
2018-06-08T04:52:57.319Z,324.00
2018-06-08T04:53:57.322Z,332.00
2018-06-08T04:54:57.329Z,344.00
2018-06-08T04:55:57.334Z,356.00
2018-06-08T04:56:57.333Z,372.00
2018-06-08T04:57:57.365Z,384.00
2018-06-08T04:58:57.340Z,392.00
2018-06-08T04:59:57.346Z,400.00
2018-06-08T05:00:57.359Z,400.00
2018-06-08T05:01:57.348Z,404.00
2018-06-08T05:02:57.393Z,412.00
2018-06-08T05:03:57.356Z,408.00
2018-06-08T05:04:57.366Z,408.00
2018-06-08T05:05:57.399Z,412.00
2018-06-08T05:06:57.365Z,412.00
2018-06-08T05:07:57.367Z,412.00
2018-06-08T05:08:57.441Z,412.00
2018-06-08T05:09:57.376Z,416.00
2018-06-08T05:10:57.379Z,416.00
2018-06-08T05:11:57.394Z,416.00
2018-06-08T05:12:57.384Z,416.00
2018-06-08T05:13:57.392Z,420.00
2018-06-08T05:14:57.404Z,424.00
2018-06-08T05:15:57.397Z,424.00
2018-06-08T05:16:57.400Z,428.00
2018-06-08T05:17:57.403Z,436.00
2018-06-08T05:18:57.413Z,448.00
2018-06-08T05:19:57.411Z,456.00
2018-06-08T05:20:57.422Z,472.00
2018-06-08T05:21:57.417Z,484.00
2018-06-08T05:22:57.427Z,504.00
2018-06-08T05:23:57.444Z,528.00
2018-06-08T05:24:57.459Z,556.00
2018-06-08T05:25:57.447Z,584.00
2018-06-08T05:26:57.469Z,620.00
2018-06-08T05:27:57.467Z,652.00
2018-06-08T05:28:57.468Z,684.00
2018-06-08T05:29:57.470Z,720.00
2018-06-08T05:30:57.457Z,748.00
2018-06-08T05:31:57.483Z,780.00
2018-06-08T05:32:57.477Z,808.00
2018-06-08T05:33:57.468Z,836.00
2018-06-08T05:34:57.497Z,864.00
2018-06-08T05:35:57.497Z,892.00
2018-06-08T05:36:57.506Z,924.00
2018-06-08T05:37:57.487Z,960.00
2018-06-08T05:38:57.492Z,996.00
2018-06-08T05:39:57.517Z,1032.00
2018-06-08T05:40:57.500Z,1064.00
2018-06-08T05:41:57.509Z,1096.00
2018-06-08T05:42:57.521Z,1120.00
2018-06-08T05:43:57.503Z,1144.00
2018-06-08T05:44:57.510Z,1172.00
2018-06-08T05:45:57.508Z,1208.00
2018-06-08T05:46:57.542Z,1244.00
2018-06-08T05:47:57.533Z,1284.00
2018-06-08T05:48:57.537Z,1320.00
2018-06-08T05:49:57.547Z,1364.00
2018-06-08T05:50:57.556Z,1396.00
2018-06-08T05:51:57.561Z,1452.00
2018-06-08T05:52:57.537Z,1516.00
2018-06-08T05:53:57.551Z,1668.00
2018-06-08T05:54:57.554Z,1668.00
2018-06-08T05:55:57.562Z,1704.00
2018-06-08T05:56:57.559Z,1852.00
2018-06-08T05:57:57.580Z,1968.00
2018-06-08T05:58:57.587Z,1884.00
2018-06-08T05:59:57.585Z,1824.00
2018-06-08T06:00:57.601Z,1844.00
2018-06-08T06:01:57.589Z,1884.00
2018-06-08T06:02:57.578Z,1924.00
2018-06-08T06:03:57.592Z,1972.00
2018-06-08T06:04:57.589Z,2048.00
2018-06-08T06:05:57.593Z,2156.00
2018-06-08T06:06:57.596Z,2264.00
2018-06-08T06:07:57.603Z,2404.00
2018-06-08T06:08:57.607Z,2444.00
2018-06-08T06:10:01.584Z,2592.00
2018-06-08T06:11:05.106Z,2528.00
2018-06-08T06:12:51.964Z,2548.00
2018-06-08T06:13:53.004Z,2536.00
2018-06-08T06:15:44.880Z,2580.00
2018-06-08T06:16:44.791Z,2580.00
2018-06-08T06:18:37.719Z,2668.00
2018-06-08T06:19:37.357Z,2836.00
2018-06-08T06:21:31.113Z,3628.00
2018-06-08T06:22:30.760Z,4048.00
2018-06-08T06:24:24.524Z,2800.00
2018-06-08T06:25:24.999Z,2580.00
2018-06-08T06:27:17.857Z,2336.00
2018-06-08T06:28:18.365Z,2188.00
2018-06-08T06:30:10.700Z,2044.00
2018-06-08T06:31:10.683Z,2016.00
2018-06-08T06:33:03.554Z,1944.00
2018-06-08T06:34:04.164Z,1892.00
2018-06-08T06:35:56.461Z,1780.00
2018-06-08T06:36:56.491Z,1728.00
2018-06-08T06:38:49.360Z,1676.00
2018-06-08T06:39:49.387Z,1652.00
2018-06-08T06:41:42.208Z,1680.00
2018-06-08T06:42:41.874Z,1716.00
2018-06-08T06:44:36.266Z,1800.00
2018-06-08T06:45:35.641Z,1860.00
2018-06-08T06:47:29.050Z,1896.00
2018-06-08T06:48:28.605Z,1868.00
2018-06-08T06:50:22.476Z,1792.00
2018-06-08T06:51:22.481Z,1764.00
2018-06-08T06:53:15.359Z,1764.00
2018-06-08T06:54:15.264Z,1784.00
2018-06-08T06:56:07.243Z,1828.00
2018-06-08T06:57:08.200Z,1844.00
2018-06-08T06:59:01.079Z,1880.00
2018-06-08T07:00:00.603Z,1900.00
2018-06-08T07:01:52.910Z,1936.00
2018-06-08T07:02:52.576Z,1956.00
2018-06-08T07:04:45.823Z,2012.00
2018-06-08T07:05:45.856Z,2040.00
2018-06-08T07:07:39.240Z,2084.00
2018-06-08T07:08:38.729Z,2104.00
2018-06-08T07:10:31.637Z,2136.00
2018-06-08T07:11:31.587Z,2148.00
2018-06-08T07:13:24.955Z,2148.00
2018-06-08T07:14:24.821Z,2148.00
2018-06-08T07:16:17.815Z,2192.00
2018-06-08T07:17:18.875Z,2224.00
2018-06-08T07:19:10.638Z,2236.00
2018-06-08T07:20:11.286Z,2240.00
2018-06-08T07:22:03.556Z,2284.00
2018-06-08T07:23:03.308Z,2340.00
2018-06-08T07:24:56.444Z,2336.00
2018-06-08T07:25:56.221Z,2492.00
2018-06-08T07:27:49.341Z,2592.00
2018-06-08T07:28:49.075Z,2664.00
2018-06-08T07:30:42.337Z,2824.00
2018-06-08T07:31:42.299Z,2956.00
2018-06-08T07:33:35.205Z,4200.00
2018-06-08T07:34:35.189Z,4872.00
2018-06-08T07:36:28.601Z,3568.00
2018-06-08T07:37:28.571Z,3800.00
2018-06-08T07:39:21.998Z,4032.00
2018-06-08T07:40:21.789Z,4036.00
2018-06-08T07:42:15.331Z,4768.00
2018-06-08T07:43:15.072Z,5404.00
2018-06-08T07:45:08.247Z,6248.00
2018-06-08T07:46:09.179Z,5216.00
2018-06-08T07:48:01.155Z,4512.00
2018-06-08T07:49:01.657Z,4368.00
2018-06-08T07:50:54.010Z,4336.00
2018-06-08T07:51:54.002Z,4124.00
2018-06-08T07:53:46.918Z,3788.00
2018-06-08T07:54:46.671Z,4020.00
2018-06-08T07:56:39.733Z,4496.00
2018-06-08T07:57:39.517Z,5360.00
2018-06-08T07:59:33.227Z,4992.00
2018-06-08T08:00:33.129Z,4320.00
2018-06-08T08:02:26.087Z,4156.00
2018-06-08T08:03:25.798Z,4172.00
2018-06-08T08:05:18.992Z,4608.00
2018-06-08T08:06:18.970Z,5180.00
2018-06-08T08:08:11.838Z,6864.00
2018-06-08T08:09:12.464Z,7604.00
2018-06-08T08:11:04.788Z,8660.00
2018-06-08T08:12:04.728Z,8612.00
2018-06-08T08:13:57.682Z,8816.00
2018-06-08T08:14:57.655Z,9112.00
2018-06-08T08:16:50.547Z,8868.00
2018-06-08T08:17:50.286Z,8988.00
2018-06-08T08:19:44.466Z,8784.00
2018-06-08T08:20:44.415Z,9196.00
2018-06-08T08:22:37.290Z,9524.00
2018-06-08T08:23:37.042Z,9536.00
2018-06-08T08:25:31.725Z,9516.00
2018-06-08T08:26:30.961Z,9764.00
2018-06-08T08:28:25.130Z,10096.00
2018-06-08T08:29:24.429Z,10272.00
2018-06-08T08:31:18.059Z,7708.00
2018-06-08T08:32:17.771Z,8996.00
2018-06-08T08:34:10.884Z,10096.00
2018-06-08T08:35:10.919Z,9652.00
2018-06-08T08:37:03.823Z,8340.00
2018-06-08T08:38:03.762Z,9500.00
2018-06-08T08:39:57.194Z,9196.00
2018-06-08T08:40:56.590Z,7296.00
2018-06-08T08:42:49.671Z,9448.00
2018-06-08T08:43:50.706Z,8032.00
2018-06-08T08:45:43.032Z,9768.00
2018-06-08T08:46:43.062Z,9496.00
2018-06-08T08:48:35.485Z,9100.00
2018-06-08T08:49:36.017Z,9504.00
2018-06-08T08:51:28.916Z,8644.00
2018-06-08T08:52:28.866Z,8588.00
2018-06-08T08:54:22.740Z,8816.00
2018-06-08T08:55:22.780Z,8884.00
2018-06-08T08:57:16.727Z,8856.00
2018-06-08T08:58:16.191Z,8648.00
2018-06-08T09:00:09.816Z,8116.00
2018-06-08T09:01:11.147Z,7724.00
2018-06-08T09:03:02.756Z,7140.00
2018-06-08T09:04:02.162Z,7000.00
2018-06-08T09:05:55.643Z,6436.00
2018-06-08T09:06:54.991Z,6208.00
2018-06-08T09:08:48.002Z,5764.00
2018-06-08T09:09:48.970Z,5516.00
2018-06-08T09:11:40.903Z,5176.00
2018-06-08T09:12:41.861Z,5084.00
2018-06-08T09:14:34.335Z,4984.00
2018-06-08T09:15:33.785Z,4976.00
2018-06-08T09:17:27.260Z,4976.00
2018-06-08T09:18:26.558Z,4980.00
2018-06-08T09:20:20.637Z,4952.00
2018-06-08T09:21:19.997Z,4912.00
2018-06-08T09:23:13.015Z,4992.00
2018-06-08T09:24:12.757Z,5016.00
2018-06-08T09:26:05.873Z,5012.00
2018-06-08T09:27:05.876Z,4996.00
2018-06-08T09:28:58.798Z,4912.00
2018-06-08T09:29:58.810Z,4884.00
2018-06-08T09:31:51.662Z,4784.00
2018-06-08T09:32:52.661Z,4832.00
2018-06-08T09:34:44.615Z,4968.00
2018-06-08T09:35:44.514Z,4956.00
2018-06-08T09:37:37.487Z,5020.00
2018-06-08T09:38:38.374Z,4992.00
2018-06-08T09:40:30.869Z,4968.00
2018-06-08T09:41:30.856Z,4948.00
2018-06-08T09:43:24.315Z,4916.00
2018-06-08T09:44:24.180Z,4880.00
2018-06-08T09:46:17.234Z,4856.00
2018-06-08T09:47:17.650Z,4840.00
2018-06-08T09:49:10.109Z,4860.00
2018-06-08T09:50:10.613Z,4868.00
2018-06-08T09:52:03.028Z,4856.00
2018-06-08T09:53:03.005Z,4820.00
2018-06-08T09:54:57.041Z,4784.00
2018-06-08T09:55:56.039Z,4768.00
2018-06-08T09:57:49.326Z,4740.00
2018-06-08T09:58:48.821Z,4692.00
2018-06-08T10:00:41.717Z,4700.00
2018-06-08T10:01:41.682Z,4648.00
2018-06-08T10:03:34.570Z,4364.00
2018-06-08T10:04:34.570Z,4520.00
2018-06-08T10:06:27.512Z,4576.00
2018-06-08T10:07:28.826Z,4632.00
2018-06-08T10:09:21.394Z,4664.00
2018-06-08T10:10:20.891Z,4668.00
2018-06-08T10:12:14.305Z,4628.00
2018-06-08T10:13:13.805Z,4628.00
2018-06-08T10:15:07.490Z,4612.00
2018-06-08T10:16:06.948Z,4624.00
2018-06-08T10:18:00.357Z,4612.00
2018-06-08T10:18:59.765Z,4608.00
2018-06-08T10:20:53.718Z,4544.00
2018-06-08T10:21:52.674Z,4548.00
2018-06-08T10:23:45.704Z,4540.00
2018-06-08T10:24:45.567Z,4520.00
2018-06-08T10:26:38.542Z,4548.00
2018-06-08T10:27:38.562Z,4532.00
2018-06-08T10:29:32.194Z,4568.00
2018-06-08T10:30:31.464Z,4540.00
2018-06-08T10:32:24.856Z,4560.00
2018-06-08T10:33:25.027Z,4552.00
2018-06-08T10:35:17.750Z,4544.00
2018-06-08T10:36:17.607Z,4500.00
2018-06-08T10:38:10.521Z,4472.00
2018-06-08T10:39:10.661Z,4496.00
2018-06-08T10:41:03.504Z,4472.00
2018-06-08T10:42:03.553Z,4460.00
2018-06-08T10:43:57.447Z,4392.00
2018-06-08T10:44:56.307Z,4444.00
2018-06-08T10:46:49.378Z,4456.00
2018-06-08T10:47:49.320Z,4396.00
2018-06-08T10:49:42.227Z,4380.00
2018-06-08T10:50:42.713Z,4312.00
2018-06-08T10:52:35.140Z,4280.00
2018-06-08T10:53:35.013Z,4280.00
2018-06-08T10:55:29.064Z,4228.00
2018-06-08T10:56:28.035Z,4188.00
2018-06-08T10:58:21.514Z,4152.00
2018-06-08T10:59:21.308Z,4096.00
2018-06-08T11:01:15.330Z,4088.00
2018-06-08T11:02:15.353Z,4168.00
2018-06-08T11:04:09.226Z,4156.00
2018-06-08T11:05:09.189Z,4088.00
2018-06-08T11:07:02.130Z,4088.00
2018-06-08T11:08:02.658Z,4056.00
2018-06-08T11:09:55.038Z,3980.00
2018-06-08T11:10:56.035Z,3972.00
2018-06-08T11:12:47.949Z,3924.00
2018-06-08T11:13:47.646Z,3896.00
2018-06-08T11:15:40.859Z,3888.00
2018-06-08T11:16:41.357Z,3912.00
2018-06-08T11:18:34.762Z,3896.00
2018-06-08T11:19:34.371Z,3876.00
2018-06-08T11:21:27.659Z,3780.00
2018-06-08T11:22:27.650Z,3728.00
2018-06-08T11:24:21.052Z,3660.00
2018-06-08T11:25:21.520Z,3700.00
2018-06-08T11:27:13.911Z,3648.00
2018-06-08T11:28:14.458Z,3596.00
2018-06-08T11:30:06.876Z,3612.00
2018-06-08T11:31:07.392Z,3624.00
2018-06-08T11:32:59.735Z,3536.00
2018-06-08T11:33:59.514Z,3528.00
2018-06-08T11:35:53.672Z,3576.00
2018-06-08T11:36:53.662Z,3572.00
2018-06-08T11:38:47.861Z,3516.00
2018-06-08T11:39:46.539Z,3244.00
2018-06-08T11:40:47.064Z,3176.00
2018-06-08T11:41:47.104Z,2876.00
2018-06-08T11:42:46.585Z,2788.00
2018-06-08T11:43:47.655Z,2880.00
2018-06-08T11:44:54.567Z,2824.00
2018-06-08T11:46:39.384Z,2728.00
2018-06-08T11:47:39.502Z,2644.00
2018-06-08T11:49:32.896Z,2592.00
2018-06-08T11:50:32.424Z,2612.00
2018-06-08T11:52:26.356Z,2656.00
2018-06-08T11:53:25.933Z,2876.00
2018-06-08T11:55:20.554Z,2608.00
2018-06-08T11:56:21.123Z,2552.00
2018-06-08T11:57:20.627Z,2548.00
2018-06-08T11:58:21.154Z,2628.00
2018-06-08T11:59:22.236Z,2740.00
2018-06-08T12:00:22.249Z,2628.00
2018-06-08T12:01:22.336Z,2632.00
2018-06-08T12:02:22.124Z,2632.00
2018-06-08T12:03:21.072Z,2628.00
2018-06-08T12:04:22.811Z,2624.00
2018-06-08T12:05:20.225Z,2648.00
2018-06-08T12:06:20.215Z,2672.00
2018-06-08T12:07:20.225Z,2704.00
2018-06-08T12:08:20.237Z,2732.00
2018-06-08T12:09:20.281Z,2788.00
2018-06-08T12:10:20.256Z,2852.00
2018-06-08T12:11:20.287Z,3204.00
2018-06-08T12:12:20.281Z,3000.00
2018-06-08T12:13:20.295Z,3024.00
2018-06-08T12:14:20.294Z,3208.00
2018-06-08T12:15:20.303Z,3464.00
2018-06-08T12:16:20.313Z,3660.00
2018-06-08T12:17:20.318Z,3640.00
2018-06-08T12:18:20.335Z,3472.00
2018-06-08T12:19:20.340Z,3388.00
2018-06-08T12:20:20.364Z,3028.00
2018-06-08T12:21:20.359Z,3196.00
2018-06-08T12:22:20.364Z,3292.00
2018-06-08T12:23:20.377Z,3156.00
2018-06-08T12:24:20.434Z,2988.00
2018-06-08T12:25:20.404Z,2952.00
2018-06-08T12:26:20.408Z,2964.00
2018-06-08T12:27:20.415Z,3076.00
2018-06-08T12:28:20.433Z,3128.00
2018-06-08T12:29:20.493Z,3408.00
2018-06-08T12:30:20.445Z,3592.00
2018-06-08T12:31:20.506Z,3584.00
2018-06-08T12:32:20.515Z,3572.00
2018-06-08T12:33:20.472Z,3588.00
2018-06-08T12:34:20.485Z,3560.00
2018-06-08T12:35:20.491Z,3548.00
2018-06-08T12:36:20.511Z,3536.00
2018-06-08T12:37:20.597Z,3520.00
2018-06-08T12:38:20.582Z,3532.00
2018-06-08T12:39:20.542Z,3500.00
2018-06-08T12:40:20.571Z,3476.00
2018-06-08T12:41:20.613Z,3464.00
2018-06-08T12:42:20.573Z,3432.00
2018-06-08T12:43:29.270Z,3344.00
2018-06-08T12:45:14.479Z,3124.00
2018-06-08T12:46:15.073Z,3036.00
2018-06-08T12:48:07.919Z,3008.00
2018-06-08T12:49:07.924Z,3104.00
2018-06-08T12:51:00.824Z,3244.00
2018-06-08T12:52:01.216Z,3204.00
2018-06-08T12:53:54.687Z,3120.00
2018-06-08T12:55:02.585Z,3076.00
2018-06-08T12:56:47.032Z,3000.00
2018-06-08T12:57:48.535Z,2976.00
2018-06-08T12:59:41.024Z,2920.00
2018-06-08T13:00:41.948Z,2916.00
2018-06-08T13:02:35.369Z,2888.00
2018-06-08T13:03:35.501Z,2872.00
2018-06-08T13:05:28.234Z,2864.00
2018-06-08T13:06:28.290Z,2856.00
2018-06-08T13:08:20.224Z,2832.00
2018-06-08T13:09:20.742Z,2836.00
2018-06-08T13:11:12.589Z,2840.00
2018-06-08T13:12:13.019Z,2840.00
2018-06-08T13:14:05.466Z,2852.00
2018-06-08T13:15:05.834Z,2868.00
2018-06-08T13:16:58.394Z,2876.00
2018-06-08T13:17:58.198Z,2852.00
2018-06-08T13:19:51.269Z,2892.00
2018-06-08T13:20:51.722Z,2896.00
2018-06-08T13:22:44.232Z,2876.00
2018-06-08T13:23:44.072Z,2824.00
2018-06-08T13:25:36.921Z,2764.00
2018-06-08T13:26:37.120Z,2736.00
2018-06-08T13:28:30.005Z,2740.00
2018-06-08T13:29:29.724Z,2552.00
2018-06-08T13:31:22.812Z,2348.00
2018-06-08T13:32:22.880Z,2332.00
2018-06-08T13:34:15.734Z,2536.00
2018-06-08T13:35:15.782Z,2568.00
2018-06-08T13:37:08.587Z,2568.00
2018-06-08T13:38:08.330Z,2572.00
2018-06-08T13:40:02.555Z,2572.00
2018-06-08T13:41:02.267Z,2552.00
2018-06-08T13:42:56.859Z,2524.00
2018-06-08T13:43:55.521Z,2520.00
2018-06-08T13:45:48.473Z,2520.00
2018-06-08T13:46:48.177Z,2524.00
2018-06-08T13:48:41.342Z,2524.00
2018-06-08T13:49:41.065Z,2512.00
2018-06-08T13:51:34.168Z,2504.00
2018-06-08T13:52:33.971Z,2496.00
2018-06-08T13:54:27.119Z,2468.00
2018-06-08T13:55:26.962Z,2460.00
2018-06-08T13:57:20.024Z,2432.00
2018-06-08T13:58:19.693Z,2428.00
2018-06-08T14:00:12.936Z,2440.00
2018-06-08T14:01:12.838Z,2440.00
2018-06-08T14:03:06.409Z,2428.00
2018-06-08T14:04:05.773Z,2424.00
2018-06-08T14:05:58.674Z,2416.00
2018-06-08T14:06:58.354Z,2408.00
2018-06-08T14:08:51.930Z,2376.00
2018-06-08T14:09:51.437Z,2364.00
2018-06-08T14:11:45.332Z,2364.00
2018-06-08T14:12:44.378Z,2364.00
2018-06-08T14:14:37.690Z,2352.00
2018-06-08T14:15:37.711Z,2348.00
2018-06-08T14:17:30.614Z,2356.00
2018-06-08T14:18:31.542Z,2356.00
2018-06-08T14:20:24.357Z,2340.00
2018-06-08T14:21:23.096Z,2328.00
2018-06-08T14:23:16.874Z,2320.00
2018-06-08T14:24:16.507Z,2312.00
2018-06-08T14:26:10.220Z,2316.00
2018-06-08T14:27:09.605Z,2312.00
2018-06-08T14:29:02.731Z,2320.00
2018-06-08T14:30:02.719Z,2324.00
2018-06-08T14:31:55.645Z,2332.00
2018-06-08T14:32:55.357Z,2328.00
2018-06-08T14:34:48.497Z,2296.00
2018-06-08T14:35:48.456Z,2300.00
2018-06-08T14:37:41.344Z,2328.00
2018-06-08T14:38:41.275Z,2328.00
2018-06-08T14:40:34.283Z,2328.00
2018-06-08T14:41:34.283Z,2320.00
2018-06-08T14:43:27.042Z,2308.00
2018-06-08T14:44:26.761Z,2296.00
2018-06-08T14:46:19.998Z,2284.00
2018-06-08T14:47:19.624Z,2280.00
2018-06-08T14:49:13.396Z,2244.00
2018-06-08T14:50:13.366Z,2240.00
2018-06-08T14:52:07.753Z,2212.00
2018-06-08T14:53:07.402Z,2200.00